Flight Track Log - Related Links

Times and Time Zones

All times are in EST time to prevent confusion due to time zone crossing. See the N45NF flight status page for this flight to view local times or setup timezone preferences in your user account.

Time Position Orientation Groundspeed Altitude Reporting Facility
EST Latitude Longitude Course Direction KTS MPH feet Rate Location/Type
Thu 03:10:41 PM 35.9950 -96.0003 133° Southeast 180 207 2,400  Level Kansas City Center
Thu 03:11:22 PM 35.9753 -95.9742 133° Southeast 217 250 2,900 1,500 Climbing Kansas City Center
Thu 03:11:41 PM 35.9750 -95.9358 91° East 245 282 3,900 3,524 Climbing Kansas City Center
Thu 03:12:25 PM 35.9561 -95.8847 115° Southeast 246 283 6,600 3,836 Climbing Kansas City Center
Thu 03:12:42 PM 35.9386 -95.8786 164° South 240 276 7,800 3,871 Climbing Kansas City Center
Thu 03:13:27 PM 35.8931 -95.8692 170° South 235 270 10,600 3,934 Climbing Kansas City Center
Thu 03:13:43 PM 35.8750 -95.8714 186° South 236 272 11,800 3,677 Climbing Kansas City Center
Thu 03:14:29 PM 35.8267 -95.8678 177° South 238 274 14,400 1,833 Climbing Kansas City Center
Thu 03:15:31 PM 35.7414 -95.8656 179° South 300 345 15,100 774 Climbing Kansas City Center
Thu 03:16:33 PM 35.6492 -95.8969 195° South 353 406 16,000 435 Climbing Kansas City Center
Thu 03:17:35 PM 35.5694 -95.9661 215° Southwest 354 407 16,000  Level Kansas City Center
Thu 03:18:37 PM 35.4725 -96.0483 215° Southwest 351 404 16,000 -48 Level Kansas City Center
Thu 03:19:39 PM 35.3944 -96.1119 214° Southwest 351 404 15,900 65 Descending Kansas City Center
Thu 03:20:09 PM 35.3561 -96.1458 216° Southwest 360 414 16,100 67 Climbing Fort Worth Center
Thu 03:21:09 PM 35.2733 -96.2108 213° Southwest 360 414 16,000  Descending Fort Worth Center
Thu 03:22:09 PM 35.1947 -96.2753 214° Southwest 355 409 16,100 50 Climbing Fort Worth Center
Thu 03:23:09 PM 35.1139 -96.3425 214° Southwest 355 409 16,100 -900 Level Fort Worth Center
Thu 03:24:09 PM 35.0372 -96.4069 215° Southwest 345 397 14,300 -1,600 Descending Fort Worth Center
Thu 03:25:09 PM 34.9606 -96.4686 213° Southwest 345 397 12,900 -1,200 Descending Fort Worth Center
Thu 03:26:09 PM 34.8839 -96.5328 214° Southwest 345 397 11,900 -1,000 Descending Fort Worth Center
Thu 03:27:09 PM 34.8069 -96.5967 214° Southwest 345 397 10,900 -950 Descending Fort Worth Center
Thu 03:28:09 PM 34.7364 -96.6506 212° Southwest 336 387 10,000 -1,200 Descending Fort Worth Center
Thu 03:29:09 PM 34.6803 -96.6964 214° Southwest 290 334 8,500 -1,450 Descending Fort Worth Center
Thu 03:30:09 PM 34.6244 -96.7422 214° Southwest 259 298 7,100 -1,200 Descending Fort Worth Center
Thu 03:31:09 PM 34.5683 -96.7881 214° Southwest 252 290 6,100 -900 Descending Fort Worth Center
Thu 03:32:09 PM 34.5122 -96.8339 214° Southwest 252 290 5,300 -600 Descending Fort Worth Center
Thu 03:33:09 PM 34.4561 -96.8769 212° Southwest 252 290 4,900 -400 Descending Fort Worth Center

Login

Don't have an account? Register now (free) for customized features, flight alerts, and more!